Huvudsida
METAR-TAF:

METAR-TAF

Flygplatser :

Zeltweg, Österrike

latitud: 47-12N, longitud: 014-45E, höjd: 677 m

Aktuellt väderrapport

Denna rapport gjordes för 17 minuter sedan, klockan 13:50 UTC
Vind 5 kt från ost/nordost
Temperatur 27°C
Fuktighet 39%
Tryck 1022 hPa
Få moln på en höjd av 5000 ft, Högtornande cumulus.

METAR: LOXZ 241350Z 07005KT 40KM FEW050TCU SCT090AC 27/12 Q1022 NOSIG

Tid: 16:07 (14:07 UTC)

Väderprognos

Denna rapport gjordes för 2 timmar och 52 minuter sedan, klockan 11:15 UTC
Prognos gäller från 24 kl. 12 UTC till 24 kl. 21 UTC
Vind 6 kt från nordost
Sikt 10 km eller mer
Få moln på en höjd av 5000 ft
Temporärt
från 24 kl. 12 UTC till 24 kl. 18 UTC
Vind 8 kt från ost/sydost
Få moln på en höjd av 5000 ft, Högtornande cumulus.
Spridda moln på en höjd av 6000 ft

TAF: LOXZ 241115Z 2412/2421 05006KT 9999 FEW050 TEMPO 2412/2418 12008KT FEW050TCU SCT060

Aktuella väderrapporter och prognoser från 4000 flygplatser (METAR- och TAF-rapporter).

De tillgängliga stationerna syns som gula och röda prickar på kartan.

För musen över prickarna för att se namnen på stationerna.

Klicka sedan för att få väderrapporter och prognoser.

För att ändra kartan: Klicka på de gröna knapparna med ett svart kors på för att zooma in; den gröna knappen med ett streck på för att zooma ut; eller på de gröna pilarna för angränsande kartor.


METAR-TAF: